sensor_id;sensor_type;location;lat;lon;timestamp;P1;durP1;ratioP1;P2;durP2;ratioP2
27632;SDS011;15046;50.930;13.334;2024-01-15T00:02:05;20.05;;;8.05;;
27632;SDS011;15046;50.930;13.334;2024-01-15T00:04:35;16.40;;;7.10;;
27632;SDS011;15046;50.930;13.334;2024-01-15T00:07:02;20.17;;;8.63;;
27632;SDS011;15046;50.930;13.334;2024-01-15T00:09:28;15.90;;;7.55;;
27632;SDS011;15046;50.930;13.334;2024-01-15T00:11:54;14.65;;;7.55;;
27632;SDS011;15046;50.930;13.334;2024-01-15T00:14:19;16.85;;;7.93;;
27632;SDS011;15046;50.930;13.334;2024-01-15T00:16:46;15.63;;;7.10;;
27632;SDS011;15046;50.930;13.334;2024-01-15T00:19:12;14.73;;;6.53;;
27632;SDS011;15046;50.930;13.334;2024-01-15T00:21:38;14.05;;;7.57;;
27632;SDS011;15046;50.930;13.334;2024-01-15T00:24:03;16.40;;;7.30;;
27632;SDS011;15046;50.930;13.334;2024-01-15T00:26:29;16.65;;;8.38;;
27632;SDS011;15046;50.930;13.334;2024-01-15T00:28:55;15.00;;;7.40;;
27632;SDS011;15046;50.930;13.334;2024-01-15T00:31:21;18.25;;;7.63;;
27632;SDS011;15046;50.930;13.334;2024-01-15T00:33:46;16.67;;;8.07;;
27632;SDS011;15046;50.930;13.334;2024-01-15T00:36:12;16.35;;;7.38;;
27632;SDS011;15046;50.930;13.334;2024-01-15T00:38:39;18.20;;;7.63;;
27632;SDS011;15046;50.930;13.334;2024-01-15T00:41:05;17.02;;;7.40;;
27632;SDS011;15046;50.930;13.334;2024-01-15T00:43:31;13.90;;;6.50;;
27632;SDS011;15046;50.930;13.334;2024-01-15T00:45:56;20.17;;;8.70;;
27632;SDS011;15046;50.930;13.334;2024-01-15T00:48:22;20.50;;;9.63;;
27632;SDS011;15046;50.930;13.334;2024-01-15T00:50:48;19.17;;;8.10;;
27632;SDS011;15046;50.930;13.334;2024-01-15T00:53:14;18.02;;;8.18;;
27632;SDS011;15046;50.930;13.334;2024-01-15T00:55:39;18.13;;;6.95;;
27632;SDS011;15046;50.930;13.334;2024-01-15T00:58:05;19.77;;;8.80;;
27632;SDS011;15046;50.930;13.334;2024-01-15T01:00:31;17.13;;;6.97;;
27632;SDS011;15046;50.930;13.334;2024-01-15T01:02:57;19.55;;;8.73;;
27632;SDS011;15046;50.930;13.334;2024-01-15T01:05:22;20.85;;;8.95;;
27632;SDS011;15046;50.930;13.334;2024-01-15T01:07:48;18.48;;;8.77;;
27632;SDS011;15046;50.930;13.334;2024-01-15T01:10:14;19.40;;;8.43;;
27632;SDS011;15046;50.930;13.334;2024-01-15T01:12:39;16.33;;;7.30;;
27632;SDS011;15046;50.930;13.334;2024-01-15T01:15:05;18.70;;;8.55;;
27632;SDS011;15046;50.930;13.334;2024-01-15T01:17:31;17.73;;;7.55;;
27632;SDS011;15046;50.930;13.334;2024-01-15T01:19:57;17.92;;;8.02;;
27632;SDS011;15046;50.930;13.334;2024-01-15T01:22:22;15.55;;;7.95;;
27632;SDS011;15046;50.930;13.334;2024-01-15T01:24:48;17.70;;;7.15;;
27632;SDS011;15046;50.930;13.334;2024-01-15T01:27:14;19.90;;;8.88;;
27632;SDS011;15046;50.930;13.334;2024-01-15T01:29:40;16.55;;;8.45;;
27632;SDS011;15046;50.930;13.334;2024-01-15T01:32:05;18.85;;;9.07;;
27632;SDS011;15046;50.930;13.334;2024-01-15T01:34:32;19.38;;;8.45;;
27632;SDS011;15046;50.930;13.334;2024-01-15T01:36:58;17.38;;;8.15;;
27632;SDS011;15046;50.930;13.334;2024-01-15T01:39:23;16.65;;;7.85;;
27632;SDS011;15046;50.930;13.334;2024-01-15T01:41:49;18.75;;;8.30;;
27632;SDS011;15046;50.930;13.334;2024-01-15T01:44:15;20.13;;;9.02;;
27632;SDS011;15046;50.930;13.334;2024-01-15T01:46:41;20.90;;;9.55;;
27632;SDS011;15046;50.930;13.334;2024-01-15T01:49:07;18.00;;;8.10;;
27632;SDS011;15046;50.930;13.334;2024-01-15T01:51:34;20.45;;;9.27;;
27632;SDS011;15046;50.930;13.334;2024-01-15T01:54:02;22.13;;;9.70;;
27632;SDS011;15046;50.930;13.334;2024-01-15T01:56:29;18.45;;;9.27;;
27632;SDS011;15046;50.930;13.334;2024-01-15T01:58:56;19.63;;;9.60;;
27632;SDS011;15046;50.930;13.334;2024-01-15T02:01:21;19.88;;;8.95;;
27632;SDS011;15046;50.930;13.334;2024-01-15T02:03:47;20.38;;;9.52;;
27632;SDS011;15046;50.930;13.334;2024-01-15T02:06:13;17.95;;;8.30;;
27632;SDS011;15046;50.930;13.334;2024-01-15T02:08:39;22.15;;;10.02;;
27632;SDS011;15046;50.930;13.334;2024-01-15T02:11:08;21.07;;;9.80;;
27632;SDS011;15046;50.930;13.334;2024-01-15T02:13:34;17.45;;;8.88;;
27632;SDS011;15046;50.930;13.334;2024-01-15T02:16:00;21.80;;;9.63;;
27632;SDS011;15046;50.930;13.334;2024-01-15T02:18:25;21.80;;;9.75;;
27632;SDS011;15046;50.930;13.334;2024-01-15T02:20:51;20.23;;;9.23;;
27632;SDS011;15046;50.930;13.334;2024-01-15T02:23:17;17.15;;;8.48;;
27632;SDS011;15046;50.930;13.334;2024-01-15T02:25:44;22.50;;;9.65;;
27632;SDS011;15046;50.930;13.334;2024-01-15T02:28:12;17.25;;;8.05;;
27632;SDS011;15046;50.930;13.334;2024-01-15T02:30:39;20.90;;;9.02;;
27632;SDS011;15046;50.930;13.334;2024-01-15T02:33:06;16.50;;;7.95;;
27632;SDS011;15046;50.930;13.334;2024-01-15T02:35:33;20.05;;;8.48;;
27632;SDS011;15046;50.930;13.334;2024-01-15T02:38:01;22.92;;;10.27;;
27632;SDS011;15046;50.930;13.334;2024-01-15T02:40:28;26.70;;;11.93;;
27632;SDS011;15046;50.930;13.334;2024-01-15T02:42:54;22.48;;;9.45;;
27632;SDS011;15046;50.930;13.334;2024-01-15T02:45:20;19.92;;;9.50;;
27632;SDS011;15046;50.930;13.334;2024-01-15T02:47:46;24.38;;;10.40;;
27632;SDS011;15046;50.930;13.334;2024-01-15T02:50:12;23.70;;;10.18;;
27632;SDS011;15046;50.930;13.334;2024-01-15T02:52:38;22.92;;;10.70;;
27632;SDS011;15046;50.930;13.334;2024-01-15T02:55:04;24.27;;;10.20;;
27632;SDS011;15046;50.930;13.334;2024-01-15T02:57:30;22.83;;;10.20;;
27632;SDS011;15046;50.930;13.334;2024-01-15T02:59:56;22.27;;;10.05;;
27632;SDS011;15046;50.930;13.334;2024-01-15T03:02:21;22.70;;;11.07;;
27632;SDS011;15046;50.930;13.334;2024-01-15T03:04:47;20.88;;;9.15;;
27632;SDS011;15046;50.930;13.334;2024-01-15T03:07:13;21.27;;;9.50;;
27632;SDS011;15046;50.930;13.334;2024-01-15T03:09:39;21.92;;;10.43;;
27632;SDS011;15046;50.930;13.334;2024-01-15T03:12:05;24.08;;;10.27;;
27632;SDS011;15046;50.930;13.334;2024-01-15T03:14:31;23.17;;;10.38;;
27632;SDS011;15046;50.930;13.334;2024-01-15T03:16:57;24.13;;;10.98;;
27632;SDS011;15046;50.930;13.334;2024-01-15T03:19:22;28.75;;;11.43;;
27632;SDS011;15046;50.930;13.334;2024-01-15T03:21:48;22.52;;;11.25;;
27632;SDS011;15046;50.930;13.334;2024-01-15T03:24:14;25.55;;;11.55;;
27632;SDS011;15046;50.930;13.334;2024-01-15T03:26:40;27.33;;;11.50;;
27632;SDS011;15046;50.930;13.334;2024-01-15T03:29:05;21.58;;;9.85;;
27632;SDS011;15046;50.930;13.334;2024-01-15T03:31:32;26.95;;;11.98;;
27632;SDS011;15046;50.930;13.334;2024-01-15T03:33:58;20.98;;;10.52;;
27632;SDS011;15046;50.930;13.334;2024-01-15T03:36:24;23.67;;;10.23;;
27632;SDS011;15046;50.930;13.334;2024-01-15T03:38:49;24.45;;;12.20;;
27632;SDS011;15046;50.930;13.334;2024-01-15T03:41:15;25.48;;;11.77;;
27632;SDS011;15046;50.930;13.334;2024-01-15T03:43:41;26.67;;;12.00;;
27632;SDS011;15046;50.930;13.334;2024-01-15T03:46:07;23.77;;;11.10;;
27632;SDS011;15046;50.930;13.334;2024-01-15T03:48:33;23.63;;;10.57;;
27632;SDS011;15046;50.930;13.334;2024-01-15T03:50:58;24.90;;;11.20;;
27632;SDS011;15046;50.930;13.334;2024-01-15T03:53:24;27.25;;;12.88;;
27632;SDS011;15046;50.930;13.334;2024-01-15T03:55:50;26.60;;;11.23;;
27632;SDS011;15046;50.930;13.334;2024-01-15T03:58:16;23.08;;;10.00;;
27632;SDS011;15046;50.930;13.334;2024-01-15T04:00:42;23.13;;;11.45;;
27632;SDS011;15046;50.930;13.334;2024-01-15T04:03:08;24.50;;;12.07;;
27632;SDS011;15046;50.930;13.334;2024-01-15T04:05:34;29.45;;;12.50;;
27632;SDS011;15046;50.930;13.334;2024-01-15T04:07:59;23.85;;;10.82;;
27632;SDS011;15046;50.930;13.334;2024-01-15T04:10:25;22.67;;;9.93;;
27632;SDS011;15046;50.930;13.334;2024-01-15T04:12:51;21.88;;;10.55;;
27632;SDS011;15046;50.930;13.334;2024-01-15T04:15:17;23.95;;;11.70;;
27632;SDS011;15046;50.930;13.334;2024-01-15T04:17:42;28.42;;;11.73;;
27632;SDS011;15046;50.930;13.334;2024-01-15T04:20:08;21.17;;;10.88;;
27632;SDS011;15046;50.930;13.334;2024-01-15T04:22:35;20.75;;;9.77;;
27632;SDS011;15046;50.930;13.334;2024-01-15T04:25:01;22.88;;;10.80;;
27632;SDS011;15046;50.930;13.334;2024-01-15T04:27:27;20.08;;;9.55;;
27632;SDS011;15046;50.930;13.334;2024-01-15T04:29:53;25.75;;;10.43;;
27632;SDS011;15046;50.930;13.334;2024-01-15T04:32:19;23.77;;;11.00;;
27632;SDS011;15046;50.930;13.334;2024-01-15T04:34:45;22.50;;;9.38;;
27632;SDS011;15046;50.930;13.334;2024-01-15T04:37:11;23.90;;;10.20;;
27632;SDS011;15046;50.930;13.334;2024-01-15T04:39:38;20.20;;;9.43;;
27632;SDS011;15046;50.930;13.334;2024-01-15T04:42:04;21.42;;;10.75;;
27632;SDS011;15046;50.930;13.334;2024-01-15T04:44:29;23.25;;;10.25;;
27632;SDS011;15046;50.930;13.334;2024-01-15T04:46:55;20.92;;;10.57;;
27632;SDS011;15046;50.930;13.334;2024-01-15T04:49:21;28.67;;;12.07;;
27632;SDS011;15046;50.930;13.334;2024-01-15T04:51:47;19.45;;;9.55;;
27632;SDS011;15046;50.930;13.334;2024-01-15T04:54:12;24.27;;;10.45;;
27632;SDS011;15046;50.930;13.334;2024-01-15T04:59:08;23.10;;;10.63;;
27632;SDS011;15046;50.930;13.334;2024-01-15T05:01:34;25.98;;;11.00;;
27632;SDS011;15046;50.930;13.334;2024-01-15T05:04:00;20.55;;;10.00;;
27632;SDS011;15046;50.930;13.334;2024-01-15T05:06:26;24.52;;;10.07;;
27632;SDS011;15046;50.930;13.334;2024-01-15T05:08:52;26.73;;;11.32;;
27632;SDS011;15046;50.930;13.334;2024-01-15T05:11:18;24.13;;;11.30;;
27632;SDS011;15046;50.930;13.334;2024-01-15T05:13:44;29.00;;;11.20;;
27632;SDS011;15046;50.930;13.334;2024-01-15T05:16:09;23.10;;;10.90;;
27632;SDS011;15046;50.930;13.334;2024-01-15T05:18:35;31.58;;;10.57;;
27632;SDS011;15046;50.930;13.334;2024-01-15T05:21:02;26.52;;;11.40;;
27632;SDS011;15046;50.930;13.334;2024-01-15T05:23:30;24.52;;;11.27;;
27632;SDS011;15046;50.930;13.334;2024-01-15T05:25:56;25.42;;;11.48;;
27632;SDS011;15046;50.930;13.334;2024-01-15T05:28:22;24.20;;;10.90;;
27632;SDS011;15046;50.930;13.334;2024-01-15T05:30:48;23.85;;;10.57;;
27632;SDS011;15046;50.930;13.334;2024-01-15T05:33:15;23.48;;;10.95;;
27632;SDS011;15046;50.930;13.334;2024-01-15T05:35:41;25.20;;;10.27;;
27632;SDS011;15046;50.930;13.334;2024-01-15T05:38:07;26.42;;;11.60;;
27632;SDS011;15046;50.930;13.334;2024-01-15T05:40:33;19.05;;;8.25;;
27632;SDS011;15046;50.930;13.334;2024-01-15T05:42:59;20.73;;;10.13;;
27632;SDS011;15046;50.930;13.334;2024-01-15T05:45:29;26.45;;;11.90;;
27632;SDS011;15046;50.930;13.334;2024-01-15T05:47:55;24.73;;;10.77;;
27632;SDS011;15046;50.930;13.334;2024-01-15T05:50:21;23.33;;;9.93;;
27632;SDS011;15046;50.930;13.334;2024-01-15T05:52:47;22.25;;;9.93;;
27632;SDS011;15046;50.930;13.334;2024-01-15T05:55:13;22.55;;;10.50;;
27632;SDS011;15046;50.930;13.334;2024-01-15T05:57:39;22.52;;;10.60;;
27632;SDS011;15046;50.930;13.334;2024-01-15T06:00:05;21.85;;;10.65;;
27632;SDS011;15046;50.930;13.334;2024-01-15T06:02:31;27.55;;;12.23;;
27632;SDS011;15046;50.930;13.334;2024-01-15T06:04:57;19.20;;;9.77;;
27632;SDS011;15046;50.930;13.334;2024-01-15T06:07:23;21.48;;;9.73;;
27632;SDS011;15046;50.930;13.334;2024-01-15T06:09:48;21.92;;;8.80;;
27632;SDS011;15046;50.930;13.334;2024-01-15T06:12:15;22.70;;;10.00;;
27632;SDS011;15046;50.930;13.334;2024-01-15T06:14:40;19.88;;;8.98;;
27632;SDS011;15046;50.930;13.334;2024-01-15T06:17:07;22.45;;;10.05;;
27632;SDS011;15046;50.930;13.334;2024-01-15T06:19:33;18.63;;;8.65;;
27632;SDS011;15046;50.930;13.334;2024-01-15T06:21:59;18.25;;;8.98;;
27632;SDS011;15046;50.930;13.334;2024-01-15T06:24:24;19.48;;;7.47;;
27632;SDS011;15046;50.930;13.334;2024-01-15T06:26:50;16.58;;;8.05;;
27632;SDS011;15046;50.930;13.334;2024-01-15T06:29:16;17.48;;;8.40;;
27632;SDS011;15046;50.930;13.334;2024-01-15T06:31:42;17.00;;;7.80;;
27632;SDS011;15046;50.930;13.334;2024-01-15T06:34:08;20.67;;;9.27;;
27632;SDS011;15046;50.930;13.334;2024-01-15T06:36:33;19.35;;;7.90;;
27632;SDS011;15046;50.930;13.334;2024-01-15T06:38:59;16.75;;;8.10;;
27632;SDS011;15046;50.930;13.334;2024-01-15T06:41:25;21.50;;;8.75;;
27632;SDS011;15046;50.930;13.334;2024-01-15T06:43:51;16.98;;;8.43;;
27632;SDS011;15046;50.930;13.334;2024-01-15T06:46:22;15.05;;;7.35;;
27632;SDS011;15046;50.930;13.334;2024-01-15T06:48:48;17.38;;;7.43;;
27632;SDS011;15046;50.930;13.334;2024-01-15T06:51:15;20.88;;;8.40;;
27632;SDS011;15046;50.930;13.334;2024-01-15T06:53:41;18.50;;;9.43;;
27632;SDS011;15046;50.930;13.334;2024-01-15T06:56:07;18.27;;;8.32;;
27632;SDS011;15046;50.930;13.334;2024-01-15T06:58:33;20.25;;;8.77;;
27632;SDS011;15046;50.930;13.334;2024-01-15T07:00:59;16.42;;;7.57;;
27632;SDS011;15046;50.930;13.334;2024-01-15T07:03:25;17.92;;;8.32;;
27632;SDS011;15046;50.930;13.334;2024-01-15T07:05:51;19.77;;;7.57;;
27632;SDS011;15046;50.930;13.334;2024-01-15T07:08:17;19.23;;;9.00;;
27632;SDS011;15046;50.930;13.334;2024-01-15T07:10:42;15.90;;;8.07;;
27632;SDS011;15046;50.930;13.334;2024-01-15T07:13:08;15.70;;;6.60;;
27632;SDS011;15046;50.930;13.334;2024-01-15T07:15:34;16.90;;;8.07;;
27632;SDS011;15046;50.930;13.334;2024-01-15T07:18:00;17.05;;;7.45;;
27632;SDS011;15046;50.930;13.334;2024-01-15T07:20:26;16.13;;;8.50;;
27632;SDS011;15046;50.930;13.334;2024-01-15T07:22:52;14.57;;;7.93;;
27632;SDS011;15046;50.930;13.334;2024-01-15T07:25:17;18.83;;;8.32;;
27632;SDS011;15046;50.930;13.334;2024-01-15T07:27:43;16.08;;;6.60;;
27632;SDS011;15046;50.930;13.334;2024-01-15T07:30:12;18.70;;;8.52;;
27632;SDS011;15046;50.930;13.334;2024-01-15T07:32:39;20.85;;;10.07;;
27632;SDS011;15046;50.930;13.334;2024-01-15T07:35:05;20.77;;;8.75;;
27632;SDS011;15046;50.930;13.334;2024-01-15T07:37:31;19.10;;;8.75;;
27632;SDS011;15046;50.930;13.334;2024-01-15T07:39:58;20.92;;;8.82;;
27632;SDS011;15046;50.930;13.334;2024-01-15T07:42:24;18.25;;;8.50;;
27632;SDS011;15046;50.930;13.334;2024-01-15T07:44:50;20.65;;;9.40;;
27632;SDS011;15046;50.930;13.334;2024-01-15T07:47:16;17.08;;;7.65;;
27632;SDS011;15046;50.930;13.334;2024-01-15T07:49:42;17.98;;;9.20;;
27632;SDS011;15046;50.930;13.334;2024-01-15T07:52:09;21.83;;;8.75;;
27632;SDS011;15046;50.930;13.334;2024-01-15T07:54:35;18.80;;;8.68;;
27632;SDS011;15046;50.930;13.334;2024-01-15T07:57:01;20.90;;;8.93;;
27632;SDS011;15046;50.930;13.334;2024-01-15T07:59:30;17.33;;;7.75;;
27632;SDS011;15046;50.930;13.334;2024-01-15T08:01:57;16.92;;;8.30;;
27632;SDS011;15046;50.930;13.334;2024-01-15T08:04:24;18.38;;;8.52;;
27632;SDS011;15046;50.930;13.334;2024-01-15T08:06:50;18.60;;;8.57;;
27632;SDS011;15046;50.930;13.334;2024-01-15T08:09:16;16.60;;;8.32;;
27632;SDS011;15046;50.930;13.334;2024-01-15T08:11:42;19.88;;;8.77;;
27632;SDS011;15046;50.930;13.334;2024-01-15T08:14:09;18.92;;;7.63;;
27632;SDS011;15046;50.930;13.334;2024-01-15T08:16:38;17.10;;;8.13;;
27632;SDS011;15046;50.930;13.334;2024-01-15T08:19:04;20.10;;;9.50;;
27632;SDS011;15046;50.930;13.334;2024-01-15T08:21:30;18.33;;;8.05;;
27632;SDS011;15046;50.930;13.334;2024-01-15T08:23:57;18.08;;;7.85;;
27632;SDS011;15046;50.930;13.334;2024-01-15T08:26:24;19.27;;;8.45;;
27632;SDS011;15046;50.930;13.334;2024-01-15T08:28:50;16.25;;;8.02;;
27632;SDS011;15046;50.930;13.334;2024-01-15T08:31:16;14.73;;;7.15;;
27632;SDS011;15046;50.930;13.334;2024-01-15T08:33:42;15.50;;;7.45;;
27632;SDS011;15046;50.930;13.334;2024-01-15T08:36:08;16.05;;;7.22;;
27632;SDS011;15046;50.930;13.334;2024-01-15T08:38:35;16.90;;;8.05;;
27632;SDS011;15046;50.930;13.334;2024-01-15T08:41:00;20.92;;;8.32;;
27632;SDS011;15046;50.930;13.334;2024-01-15T08:43:27;20.77;;;7.97;;
27632;SDS011;15046;50.930;13.334;2024-01-15T08:45:53;15.77;;;6.47;;
27632;SDS011;15046;50.930;13.334;2024-01-15T08:48:19;14.77;;;6.65;;
27632;SDS011;15046;50.930;13.334;2024-01-15T08:50:45;15.68;;;7.25;;
27632;SDS011;15046;50.930;13.334;2024-01-15T08:53:11;12.90;;;6.18;;
27632;SDS011;15046;50.930;13.334;2024-01-15T08:55:37;15.55;;;7.10;;
27632;SDS011;15046;50.930;13.334;2024-01-15T08:58:03;14.23;;;6.50;;
27632;SDS011;15046;50.930;13.334;2024-01-15T09:00:29;19.50;;;7.38;;
27632;SDS011;15046;50.930;13.334;2024-01-15T09:02:55;14.00;;;6.70;;
27632;SDS011;15046;50.930;13.334;2024-01-15T09:05:21;14.93;;;7.50;;
27632;SDS011;15046;50.930;13.334;2024-01-15T09:07:47;13.45;;;7.30;;
27632;SDS011;15046;50.930;13.334;2024-01-15T09:10:13;12.93;;;6.32;;
27632;SDS011;15046;50.930;13.334;2024-01-15T09:12:39;16.15;;;6.90;;
27632;SDS011;15046;50.930;13.334;2024-01-15T09:15:05;13.75;;;6.22;;
27632;SDS011;15046;50.930;13.334;2024-01-15T09:17:32;13.82;;;6.55;;
27632;SDS011;15046;50.930;13.334;2024-01-15T09:19:58;15.10;;;6.05;;
27632;SDS011;15046;50.930;13.334;2024-01-15T09:22:23;14.00;;;5.55;;
27632;SDS011;15046;50.930;13.334;2024-01-15T09:24:49;19.98;;;6.78;;
27632;SDS011;15046;50.930;13.334;2024-01-15T09:27:15;15.98;;;6.50;;
27632;SDS011;15046;50.930;13.334;2024-01-15T09:29:41;20.88;;;7.18;;
27632;SDS011;15046;50.930;13.334;2024-01-15T09:32:08;11.23;;;5.75;;
27632;SDS011;15046;50.930;13.334;2024-01-15T09:34:34;11.43;;;5.25;;
27632;SDS011;15046;50.930;13.334;2024-01-15T09:37:00;13.10;;;5.57;;
27632;SDS011;15046;50.930;13.334;2024-01-15T09:39:26;12.40;;;5.75;;
27632;SDS011;15046;50.930;13.334;2024-01-15T09:41:53;11.80;;;5.15;;
27632;SDS011;15046;50.930;13.334;2024-01-15T09:44:20;12.00;;;5.72;;
27632;SDS011;15046;50.930;13.334;2024-01-15T09:46:46;11.05;;;5.32;;
27632;SDS011;15046;50.930;13.334;2024-01-15T09:49:15;13.18;;;5.28;;
27632;SDS011;15046;50.930;13.334;2024-01-15T09:51:42;16.40;;;6.38;;
27632;SDS011;15046;50.930;13.334;2024-01-15T09:54:08;14.30;;;6.28;;
27632;SDS011;15046;50.930;13.334;2024-01-15T09:56:34;11.27;;;5.13;;
27632;SDS011;15046;50.930;13.334;2024-01-15T09:59:00;14.77;;;6.22;;
27632;SDS011;15046;50.930;13.334;2024-01-15T10:01:29;14.35;;;5.85;;
27632;SDS011;15046;50.930;13.334;2024-01-15T10:03:56;11.68;;;4.95;;
27632;SDS011;15046;50.930;13.334;2024-01-15T10:06:23;11.68;;;5.20;;
27632;SDS011;15046;50.930;13.334;2024-01-15T10:08:52;11.13;;;5.80;;
27632;SDS011;15046;50.930;13.334;2024-01-15T10:11:21;12.30;;;5.80;;
27632;SDS011;15046;50.930;13.334;2024-01-15T10:13:47;10.20;;;5.05;;
27632;SDS011;15046;50.930;13.334;2024-01-15T10:16:18;13.23;;;5.50;;
27632;SDS011;15046;50.930;13.334;2024-01-15T10:18:44;13.30;;;5.97;;
27632;SDS011;15046;50.930;13.334;2024-01-15T10:21:10;16.75;;;6.65;;
27632;SDS011;15046;50.930;13.334;2024-01-15T10:23:36;14.13;;;5.97;;
27632;SDS011;15046;50.930;13.334;2024-01-15T10:26:02;14.65;;;6.57;;
27632;SDS011;15046;50.930;13.334;2024-01-15T10:28:29;13.02;;;6.25;;
27632;SDS011;15046;50.930;13.334;2024-01-15T10:30:56;15.18;;;7.00;;
27632;SDS011;15046;50.930;13.334;2024-01-15T10:33:26;12.18;;;5.47;;
27632;SDS011;15046;50.930;13.334;2024-01-15T10:35:55;13.35;;;6.30;;
27632;SDS011;15046;50.930;13.334;2024-01-15T10:38:23;13.70;;;6.00;;
27632;SDS011;15046;50.930;13.334;2024-01-15T10:40:55;12.38;;;5.70;;
27632;SDS011;15046;50.930;13.334;2024-01-15T10:43:22;13.00;;;6.38;;
27632;SDS011;15046;50.930;13.334;2024-01-15T10:45:48;15.20;;;6.53;;
27632;SDS011;15046;50.930;13.334;2024-01-15T10:48:16;13.68;;;5.88;;
27632;SDS011;15046;50.930;13.334;2024-01-15T10:50:44;13.02;;;5.80;;
27632;SDS011;15046;50.930;13.334;2024-01-15T10:53:11;14.93;;;6.40;;
27632;SDS011;15046;50.930;13.334;2024-01-15T10:55:39;12.48;;;6.10;;
27632;SDS011;15046;50.930;13.334;2024-01-15T10:58:07;11.93;;;5.78;;
27632;SDS011;15046;50.930;13.334;2024-01-15T11:00:37;14.77;;;6.32;;
27632;SDS011;15046;50.930;13.334;2024-01-15T11:05:36;14.23;;;6.65;;
27632;SDS011;15046;50.930;13.334;2024-01-15T11:08:06;11.75;;;5.85;;
27632;SDS011;15046;50.930;13.334;2024-01-15T11:13:21;11.93;;;5.50;;
27632;SDS011;15046;50.930;13.334;2024-01-15T11:16:05;11.93;;;5.15;;
27632;SDS011;15046;50.930;13.334;2024-01-15T11:18:35;12.80;;;6.28;;
27632;SDS011;15046;50.930;13.334;2024-01-15T11:21:25;9.95;;;5.47;;
27632;SDS011;15046;50.930;13.334;2024-01-15T11:23:56;9.70;;;4.75;;
27632;SDS011;15046;50.930;13.334;2024-01-15T11:29:03;12.02;;;5.90;;
27632;SDS011;15046;50.930;13.334;2024-01-15T11:34:05;12.45;;;5.45;;
27632;SDS011;15046;50.930;13.334;2024-01-15T11:41:54;12.25;;;4.65;;
27632;SDS011;15046;50.930;13.334;2024-01-15T11:44:20;8.75;;;4.43;;
27632;SDS011;15046;50.930;13.334;2024-01-15T11:46:58;12.15;;;6.25;;
27632;SDS011;15046;50.930;13.334;2024-01-15T11:52:21;13.30;;;5.53;;
27632;SDS011;15046;50.930;13.334;2024-01-15T11:55:01;11.55;;;4.90;;
27632;SDS011;15046;50.930;13.334;2024-01-15T11:57:51;10.10;;;5.00;;
27632;SDS011;15046;50.930;13.334;2024-01-15T12:00:19;11.68;;;5.13;;
27632;SDS011;15046;50.930;13.334;2024-01-15T12:02:46;14.82;;;6.22;;
27632;SDS011;15046;50.930;13.334;2024-01-15T12:05:13;11.30;;;4.88;;
27632;SDS011;15046;50.930;13.334;2024-01-15T12:07:43;13.13;;;5.07;;
27632;SDS011;15046;50.930;13.334;2024-01-15T12:10:14;11.50;;;5.35;;
27632;SDS011;15046;50.930;13.334;2024-01-15T12:15:23;11.80;;;5.28;;
27632;SDS011;15046;50.930;13.334;2024-01-15T12:17:49;13.50;;;5.82;;
27632;SDS011;15046;50.930;13.334;2024-01-15T12:20:15;14.52;;;6.07;;
27632;SDS011;15046;50.930;13.334;2024-01-15T12:22:42;12.65;;;5.78;;
27632;SDS011;15046;50.930;13.334;2024-01-15T12:25:08;14.27;;;5.95;;
27632;SDS011;15046;50.930;13.334;2024-01-15T12:27:34;12.15;;;5.93;;
27632;SDS011;15046;50.930;13.334;2024-01-15T12:30:00;16.27;;;6.75;;
27632;SDS011;15046;50.930;13.334;2024-01-15T12:32:26;17.63;;;7.00;;
27632;SDS011;15046;50.930;13.334;2024-01-15T12:34:52;13.52;;;5.72;;
27632;SDS011;15046;50.930;13.334;2024-01-15T12:37:18;14.48;;;5.95;;
27632;SDS011;15046;50.930;13.334;2024-01-15T12:39:44;10.93;;;5.50;;
27632;SDS011;15046;50.930;13.334;2024-01-15T12:42:10;13.20;;;6.03;;
27632;SDS011;15046;50.930;13.334;2024-01-15T12:44:36;15.38;;;6.95;;
27632;SDS011;15046;50.930;13.334;2024-01-15T12:47:06;13.35;;;5.75;;
27632;SDS011;15046;50.930;13.334;2024-01-15T12:49:32;14.65;;;6.28;;
27632;SDS011;15046;50.930;13.334;2024-01-15T12:51:58;13.68;;;5.95;;
27632;SDS011;15046;50.930;13.334;2024-01-15T12:54:25;16.83;;;6.75;;
27632;SDS011;15046;50.930;13.334;2024-01-15T12:56:51;13.32;;;5.97;;
27632;SDS011;15046;50.930;13.334;2024-01-15T12:59:17;11.98;;;5.93;;
27632;SDS011;15046;50.930;13.334;2024-01-15T13:01:44;13.27;;;5.55;;
27632;SDS011;15046;50.930;13.334;2024-01-15T13:04:11;15.40;;;6.10;;
27632;SDS011;15046;50.930;13.334;2024-01-15T13:06:45;12.82;;;5.63;;
27632;SDS011;15046;50.930;13.334;2024-01-15T13:09:11;17.45;;;6.35;;
27632;SDS011;15046;50.930;13.334;2024-01-15T13:11:37;13.20;;;6.05;;
27632;SDS011;15046;50.930;13.334;2024-01-15T13:14:03;10.35;;;5.53;;
27632;SDS011;15046;50.930;13.334;2024-01-15T13:16:29;14.57;;;6.20;;
27632;SDS011;15046;50.930;13.334;2024-01-15T13:18:54;11.68;;;5.22;;
27632;SDS011;15046;50.930;13.334;2024-01-15T13:21:21;12.38;;;5.85;;
27632;SDS011;15046;50.930;13.334;2024-01-15T13:23:48;12.43;;;5.80;;
27632;SDS011;15046;50.930;13.334;2024-01-15T13:26:13;13.88;;;5.32;;
27632;SDS011;15046;50.930;13.334;2024-01-15T13:28:39;13.82;;;6.45;;
27632;SDS011;15046;50.930;13.334;2024-01-15T13:31:05;13.25;;;5.70;;
27632;SDS011;15046;50.930;13.334;2024-01-15T13:33:31;14.38;;;6.40;;
27632;SDS011;15046;50.930;13.334;2024-01-15T13:35:57;14.18;;;5.80;;
27632;SDS011;15046;50.930;13.334;2024-01-15T13:38:22;12.30;;;5.60;;
27632;SDS011;15046;50.930;13.334;2024-01-15T13:40:49;12.93;;;6.57;;
27632;SDS011;15046;50.930;13.334;2024-01-15T13:43:15;13.52;;;6.55;;
27632;SDS011;15046;50.930;13.334;2024-01-15T13:45:41;14.48;;;7.00;;
27632;SDS011;15046;50.930;13.334;2024-01-15T13:48:07;14.02;;;6.18;;
27632;SDS011;15046;50.930;13.334;2024-01-15T13:50:36;12.18;;;6.07;;
27632;SDS011;15046;50.930;13.334;2024-01-15T13:53:02;13.33;;;6.50;;
27632;SDS011;15046;50.930;13.334;2024-01-15T13:55:31;14.35;;;6.72;;
27632;SDS011;15046;50.930;13.334;2024-01-15T13:57:57;20.77;;;8.15;;
27632;SDS011;15046;50.930;13.334;2024-01-15T14:00:23;12.20;;;6.60;;
27632;SDS011;15046;50.930;13.334;2024-01-15T14:02:49;12.13;;;5.95;;
27632;SDS011;15046;50.930;13.334;2024-01-15T14:05:14;17.10;;;6.82;;
27632;SDS011;15046;50.930;13.334;2024-01-15T14:07:41;14.43;;;5.82;;
27632;SDS011;15046;50.930;13.334;2024-01-15T14:10:08;19.33;;;7.13;;
27632;SDS011;15046;50.930;13.334;2024-01-15T14:12:35;14.10;;;6.15;;
27632;SDS011;15046;50.930;13.334;2024-01-15T14:15:05;15.68;;;6.63;;
27632;SDS011;15046;50.930;13.334;2024-01-15T14:17:31;13.82;;;6.65;;
27632;SDS011;15046;50.930;13.334;2024-01-15T14:19:57;13.73;;;5.57;;
27632;SDS011;15046;50.930;13.334;2024-01-15T14:22:23;15.32;;;6.90;;
27632;SDS011;15046;50.930;13.334;2024-01-15T14:24:49;17.33;;;7.07;;
27632;SDS011;15046;50.930;13.334;2024-01-15T14:27:15;13.13;;;6.53;;
27632;SDS011;15046;50.930;13.334;2024-01-15T14:29:41;13.63;;;7.32;;
27632;SDS011;15046;50.930;13.334;2024-01-15T14:32:07;13.10;;;6.68;;
27632;SDS011;15046;50.930;13.334;2024-01-15T14:34:33;17.88;;;7.15;;
27632;SDS011;15046;50.930;13.334;2024-01-15T14:37:02;13.93;;;6.97;;
27632;SDS011;15046;50.930;13.334;2024-01-15T14:39:28;16.13;;;7.43;;